createdAt,value
2017-03-09T00:01:04.597Z,974.93
2017-03-09T00:02:14.899Z,974.95
2017-03-09T00:03:25.606Z,974.94
2017-03-09T00:04:36.301Z,974.95
2017-03-09T00:05:47.006Z,974.96
2017-03-09T00:06:57.760Z,974.94
2017-03-09T00:08:08.077Z,974.94
2017-03-09T00:09:18.378Z,974.94
2017-03-09T00:10:29.083Z,974.95
2017-03-09T00:11:39.786Z,974.93
2017-03-09T00:12:50.499Z,974.93
2017-03-09T00:14:01.198Z,974.98
2017-03-09T00:15:11.902Z,974.95
2017-03-09T00:16:22.630Z,974.97
2017-03-09T00:17:33.326Z,974.99
2017-03-09T00:18:44.027Z,974.97
2017-03-09T00:19:54.735Z,974.98
2017-03-09T00:21:05.437Z,974.95
2017-03-09T00:22:15.750Z,974.94
2017-03-09T00:23:26.092Z,974.94
2017-03-09T00:24:36.416Z,974.91
2017-03-09T00:25:46.748Z,974.91
2017-03-09T00:26:57.450Z,974.94
2017-03-09T00:28:08.153Z,974.94
2017-03-09T00:29:18.848Z,974.9
2017-03-09T00:30:28.746Z,974.92
2017-03-09T00:31:39.434Z,974.91
2017-03-09T00:32:50.143Z,974.89
2017-03-09T00:34:00.845Z,974.87
2017-03-09T00:35:11.545Z,974.88
2017-03-09T00:36:22.245Z,974.83
2017-03-09T00:37:32.957Z,974.82
2017-03-09T00:38:43.648Z,974.87
2017-03-09T00:39:54.358Z,974.88
2017-03-09T00:41:05.068Z,974.85
2017-03-09T00:42:15.788Z,974.89
2017-03-09T00:43:26.478Z,974.92
2017-03-09T00:44:37.179Z,974.88
2017-03-09T00:45:47.888Z,974.9
2017-03-09T00:46:58.590Z,974.84
2017-03-09T00:48:09.291Z,974.88
2017-03-09T00:49:19.600Z,974.83
2017-03-09T00:50:30.301Z,974.83
2017-03-09T00:51:41.020Z,974.83
2017-03-09T00:52:51.735Z,974.78
2017-03-09T00:54:02.446Z,974.8
2017-03-09T00:55:13.141Z,974.74
2017-03-09T00:56:23.844Z,974.73
2017-03-09T00:57:34.546Z,974.77
2017-03-09T00:58:45.269Z,974.79
2017-03-09T00:59:55.965Z,974.75
2017-03-09T01:01:06.313Z,974.74
2017-03-09T01:02:17.000Z,974.75
2017-03-09T01:03:27.307Z,974.69
2017-03-09T01:04:38.030Z,974.74
2017-03-09T01:05:48.720Z,974.72
2017-03-09T01:06:59.431Z,974.65
2017-03-09T01:08:10.126Z,974.67
2017-03-09T01:09:20.826Z,974.65
2017-03-09T01:10:31.538Z,974.69
2017-03-09T01:11:41.847Z,974.66
2017-03-09T01:12:52.530Z,974.67
2017-03-09T01:14:02.858Z,974.66
2017-03-09T01:15:13.550Z,974.68
2017-03-09T01:16:23.862Z,974.67
2017-03-09T01:17:34.155Z,974.66
2017-03-09T01:18:44.864Z,974.68
2017-03-09T01:19:55.583Z,974.67
2017-03-09T01:21:06.313Z,974.62
2017-03-09T01:22:17.018Z,974.65
2017-03-09T01:23:27.750Z,974.62
2017-03-09T01:24:38.041Z,974.55
2017-03-09T01:25:48.762Z,974.5
2017-03-09T01:26:59.461Z,974.52
2017-03-09T01:28:10.160Z,974.49
2017-03-09T01:29:20.063Z,974.55
2017-03-09T01:30:30.377Z,974.54
2017-03-09T01:31:41.077Z,974.48
2017-03-09T01:32:51.795Z,974.52
2017-03-09T01:34:02.508Z,974.44
2017-03-09T01:35:13.230Z,974.44
2017-03-09T01:36:23.951Z,974.37
2017-03-09T01:37:34.655Z,974.34
2017-03-09T01:38:44.947Z,974.31
2017-03-09T01:39:55.652Z,974.27
2017-03-09T01:41:05.981Z,974.26
2017-03-09T01:42:16.697Z,974.28
2017-03-09T01:43:27.389Z,974.25
2017-03-09T01:44:37.698Z,974.28
2017-03-09T01:45:48.394Z,974.17
2017-03-09T01:46:59.106Z,974.21
2017-03-09T01:48:09.817Z,974.23
2017-03-09T01:49:20.517Z,974.25
2017-03-09T01:50:31.217Z,974.24
2017-03-09T01:51:41.913Z,974.29
2017-03-09T01:52:52.220Z,974.25
2017-03-09T01:54:02.921Z,974.28
2017-03-09T01:55:13.236Z,974.28
2017-03-09T01:56:23.554Z,974.27
2017-03-09T01:57:34.256Z,974.28
2017-03-09T01:58:44.952Z,974.21
2017-03-09T01:59:55.651Z,974.15
2017-03-09T02:01:05.955Z,974.19
2017-03-09T02:02:16.656Z,974.18
2017-03-09T02:03:27.355Z,974.14
2017-03-09T02:04:38.047Z,974.18
2017-03-09T02:05:48.778Z,974.15
2017-03-09T02:06:59.471Z,974.18
2017-03-09T02:08:10.193Z,974.16
2017-03-09T02:09:20.891Z,974.16
2017-03-09T02:10:31.199Z,974.16
2017-03-09T02:11:41.521Z,974.18
2017-03-09T02:12:52.236Z,974.15
2017-03-09T02:14:02.949Z,974.14
2017-03-09T02:15:13.659Z,974.16
2017-03-09T02:16:23.558Z,974.15
2017-03-09T02:17:34.249Z,974.09
2017-03-09T02:18:44.959Z,974.08
2017-03-09T02:19:55.665Z,974.01
2017-03-09T02:21:06.431Z,973.99
2017-03-09T02:22:17.129Z,974.02
2017-03-09T02:23:27.838Z,973.97
2017-03-09T02:24:38.558Z,974
2017-03-09T02:25:49.256Z,973.97
2017-03-09T02:26:59.957Z,973.98
2017-03-09T02:28:10.656Z,974.04
2017-03-09T02:29:20.963Z,974.02
2017-03-09T02:30:31.267Z,974.06
2017-03-09T02:31:41.998Z,974.02
2017-03-09T02:32:52.735Z,973.97
2017-03-09T02:34:03.434Z,973.96
2017-03-09T02:35:13.744Z,973.97
2017-03-09T02:36:24.465Z,973.94
2017-03-09T02:37:34.778Z,973.92
2017-03-09T02:38:45.495Z,973.91
2017-03-09T02:39:55.807Z,973.91
2017-03-09T02:41:06.514Z,973.88
2017-03-09T02:42:16.813Z,973.83
2017-03-09T02:43:27.515Z,973.91
2017-03-09T02:44:38.212Z,973.88
2017-03-09T02:45:48.923Z,973.88
2017-03-09T02:46:59.625Z,973.85
2017-03-09T02:48:10.320Z,973.86
2017-03-09T02:49:21.025Z,973.81
2017-03-09T02:50:31.719Z,973.79
2017-03-09T02:51:42.406Z,973.8
2017-03-09T02:52:53.108Z,973.82
2017-03-09T02:54:03.817Z,973.81
2017-03-09T02:55:14.549Z,973.9
2017-03-09T02:56:24.853Z,973.83
2017-03-09T02:57:35.557Z,973.92
2017-03-09T02:58:46.266Z,973.88
2017-03-09T02:59:56.999Z,973.93
2017-03-09T03:01:07.704Z,973.92
2017-03-09T03:02:18.025Z,973.96
2017-03-09T03:03:28.724Z,973.89
2017-03-09T03:04:39.027Z,973.87
2017-03-09T03:05:48.930Z,973.84
2017-03-09T03:06:59.640Z,973.74
2017-03-09T03:08:10.356Z,973.75
2017-03-09T03:09:21.248Z,973.78
2017-03-09T03:10:31.939Z,973.78
2017-03-09T03:11:42.651Z,973.73
2017-03-09T03:12:53.335Z,973.7
2017-03-09T03:14:03.636Z,973.69
2017-03-09T03:15:14.329Z,973.69
2017-03-09T03:16:24.637Z,973.68
2017-03-09T03:17:35.337Z,973.72
2017-03-09T03:18:46.057Z,973.69
2017-03-09T03:19:56.371Z,973.7
2017-03-09T03:21:06.679Z,973.67
2017-03-09T03:22:17.386Z,973.65
2017-03-09T03:23:28.100Z,973.66
2017-03-09T03:24:38.820Z,973.71
2017-03-09T03:25:49.524Z,973.71
2017-03-09T03:26:59.829Z,973.69
2017-03-09T03:28:10.571Z,973.71
2017-03-09T03:29:20.879Z,973.69
2017-03-09T03:30:31.591Z,973.65
2017-03-09T03:31:42.310Z,973.63
2017-03-09T03:32:53.009Z,973.63
2017-03-09T03:34:03.725Z,973.68
2017-03-09T03:35:14.443Z,973.62
2017-03-09T03:36:24.731Z,973.63
2017-03-09T03:37:35.436Z,973.59
2017-03-09T03:38:46.133Z,973.61
2017-03-09T03:39:56.845Z,973.59
2017-03-09T03:41:07.569Z,973.54
2017-03-09T03:42:18.264Z,973.46
2017-03-09T03:43:28.570Z,973.41
2017-03-09T03:44:39.274Z,973.35
2017-03-09T03:45:49.964Z,973.33
2017-03-09T03:47:00.664Z,973.3
2017-03-09T03:48:11.353Z,973.27
2017-03-09T03:49:21.680Z,973.27
2017-03-09T03:50:31.981Z,973.25
2017-03-09T03:51:42.688Z,973.34
2017-03-09T03:52:53.394Z,973.34
2017-03-09T03:54:04.088Z,973.32
2017-03-09T03:55:14.809Z,973.33
2017-03-09T03:56:24.757Z,973.36
2017-03-09T03:57:35.450Z,973.35
2017-03-09T03:58:45.767Z,973.34
2017-03-09T03:59:56.476Z,973.33
2017-03-09T04:01:07.185Z,973.31
2017-03-09T04:02:17.887Z,973.31
2017-03-09T04:03:28.583Z,973.34
2017-03-09T04:04:39.303Z,973.3
2017-03-09T04:05:50.016Z,973.29
2017-03-09T04:07:00.727Z,973.29
2017-03-09T04:08:11.432Z,973.27
2017-03-09T04:09:22.117Z,973.32
2017-03-09T04:10:32.816Z,973.34
2017-03-09T04:11:43.110Z,973.37
2017-03-09T04:12:53.810Z,973.41
2017-03-09T04:14:04.526Z,973.41
2017-03-09T04:15:15.229Z,973.47
2017-03-09T04:16:25.981Z,973.37
2017-03-09T04:17:35.897Z,973.38
2017-03-09T04:18:46.598Z,973.41
2017-03-09T04:19:57.283Z,973.41
2017-03-09T04:21:07.976Z,973.4
2017-03-09T04:22:18.698Z,973.38
2017-03-09T04:23:28.996Z,973.41
2017-03-09T04:24:39.704Z,973.38
2017-03-09T04:25:50.428Z,973.41
2017-03-09T04:27:01.141Z,973.33
2017-03-09T04:28:11.069Z,973.35
2017-03-09T04:29:21.775Z,973.29
2017-03-09T04:30:32.473Z,973.31
2017-03-09T04:31:43.188Z,973.29
2017-03-09T04:32:53.879Z,973.25
2017-03-09T04:34:04.598Z,973.23
2017-03-09T04:35:15.308Z,973.22
2017-03-09T04:36:26.000Z,973.19
2017-03-09T04:37:36.701Z,973.18
2017-03-09T04:38:47.383Z,973.19
2017-03-09T04:39:58.070Z,973.22
2017-03-09T04:41:08.366Z,973.18
2017-03-09T04:42:19.072Z,973.16
2017-03-09T04:43:29.778Z,973.18
2017-03-09T04:44:40.473Z,973.18
2017-03-09T04:45:50.382Z,973.15
2017-03-09T04:47:00.687Z,973.14
2017-03-09T04:48:10.993Z,973.17
2017-03-09T04:49:21.709Z,973.14
2017-03-09T04:50:32.416Z,973.16
2017-03-09T04:51:43.114Z,973.14
2017-03-09T04:52:53.807Z,973.09
2017-03-09T04:54:04.505Z,973.08
2017-03-09T04:55:15.200Z,973.09
2017-03-09T04:56:25.899Z,973.03
2017-03-09T04:57:36.585Z,973.05
2017-03-09T04:58:47.286Z,972.98
2017-03-09T04:59:57.987Z,972.98
2017-03-09T05:01:08.317Z,972.98
2017-03-09T05:02:18.636Z,973.07
2017-03-09T05:03:28.535Z,973.08
2017-03-09T05:04:39.235Z,973.09
2017-03-09T05:05:49.949Z,973.12
2017-03-09T05:07:00.645Z,973.04
2017-03-09T05:08:10.954Z,973.01
2017-03-09T05:09:21.664Z,973
2017-03-09T05:10:31.566Z,973
2017-03-09T05:11:42.274Z,973
2017-03-09T05:12:52.978Z,972.99
2017-03-09T05:14:03.687Z,973.03
2017-03-09T05:15:14.377Z,973.01
2017-03-09T05:16:24.670Z,973.02
2017-03-09T05:17:34.572Z,973.05
2017-03-09T05:18:45.261Z,973.04
2017-03-09T05:19:55.572Z,973.05
2017-03-09T05:21:06.262Z,973.1
2017-03-09T05:22:16.969Z,973.06
2017-03-09T05:23:27.683Z,973.05
2017-03-09T05:24:37.989Z,973.06
2017-03-09T05:25:48.702Z,973.02
2017-03-09T05:26:59.399Z,973.06
2017-03-09T05:28:10.111Z,973.03
2017-03-09T05:29:20.795Z,973
2017-03-09T05:30:31.513Z,973.02
2017-03-09T05:31:42.212Z,972.98
2017-03-09T05:32:52.507Z,972.98
2017-03-09T05:34:03.202Z,972.99
2017-03-09T05:35:13.530Z,973.03
2017-03-09T05:36:23.829Z,973.02
2017-03-09T05:37:34.122Z,973
2017-03-09T05:38:44.819Z,973
2017-03-09T05:39:55.532Z,972.95
2017-03-09T05:41:05.854Z,972.98
2017-03-09T05:42:16.554Z,972.93
2017-03-09T05:43:26.878Z,972.93
2017-03-09T05:44:37.572Z,972.9
2017-03-09T05:45:48.258Z,972.95
2017-03-09T05:46:58.948Z,972.89
2017-03-09T05:48:09.658Z,972.91
2017-03-09T05:49:19.953Z,972.92
2017-03-09T05:50:30.267Z,972.87
2017-03-09T05:51:40.970Z,972.85
2017-03-09T05:52:51.684Z,972.85
2017-03-09T05:54:02.379Z,972.82
2017-03-09T05:55:13.100Z,972.81
2017-03-09T05:56:23.795Z,972.8
2017-03-09T05:57:34.521Z,972.79
2017-03-09T05:58:45.218Z,972.76
2017-03-09T05:59:55.934Z,972.73
2017-03-09T06:01:06.664Z,972.72
2017-03-09T06:02:17.366Z,972.69
2017-03-09T06:03:27.678Z,972.69
2017-03-09T06:04:38.371Z,972.72
2017-03-09T06:05:49.063Z,972.7
2017-03-09T06:06:59.766Z,972.78
2017-03-09T06:08:10.459Z,972.8
2017-03-09T06:09:21.147Z,972.87
2017-03-09T06:10:31.445Z,972.88
2017-03-09T06:11:42.139Z,972.83
2017-03-09T06:12:52.836Z,972.81
2017-03-09T06:14:03.536Z,972.83
2017-03-09T06:15:14.245Z,972.82
2017-03-09T06:16:24.952Z,972.76
2017-03-09T06:17:35.641Z,972.79
2017-03-09T06:18:46.349Z,972.78
2017-03-09T06:19:57.045Z,972.78
2017-03-09T06:21:07.787Z,972.79
2017-03-09T06:22:18.103Z,972.79
2017-03-09T06:23:28.808Z,972.84
2017-03-09T06:24:39.093Z,972.84
2017-03-09T06:25:49.778Z,972.88
2017-03-09T06:27:00.482Z,972.89
2017-03-09T06:28:11.187Z,972.89
2017-03-09T06:29:21.883Z,972.88
2017-03-09T06:30:32.223Z,972.91
2017-03-09T06:31:42.938Z,972.87
2017-03-09T06:32:53.669Z,972.87
2017-03-09T06:34:04.381Z,972.86
2017-03-09T06:35:15.090Z,972.83
2017-03-09T06:36:25.402Z,972.88
2017-03-09T06:37:36.102Z,972.86
2017-03-09T06:38:46.803Z,972.83
2017-03-09T06:39:57.493Z,972.8
2017-03-09T06:41:07.419Z,972.81
2017-03-09T06:42:18.128Z,972.76
2017-03-09T06:43:28.881Z,972.78
2017-03-09T06:44:39.579Z,972.77
2017-03-09T06:45:50.281Z,972.76
2017-03-09T06:47:00.985Z,972.81
2017-03-09T06:48:11.295Z,972.82
2017-03-09T06:49:22.005Z,972.79
2017-03-09T06:50:32.701Z,972.79
2017-03-09T06:51:43.408Z,972.8
2017-03-09T06:52:54.111Z,972.74
2017-03-09T06:54:04.813Z,972.76
2017-03-09T06:55:15.520Z,972.74
2017-03-09T06:56:25.848Z,972.79
2017-03-09T06:57:36.550Z,972.82
2017-03-09T06:58:47.277Z,972.84
2017-03-09T06:59:57.606Z,972.85
2017-03-09T07:01:07.922Z,972.86
2017-03-09T07:02:18.616Z,972.82
2017-03-09T07:03:29.305Z,972.85
2017-03-09T07:04:40.017Z,972.88
2017-03-09T07:05:50.324Z,972.88
2017-03-09T07:07:01.046Z,972.93
2017-03-09T07:08:11.356Z,972.97
2017-03-09T07:09:22.066Z,972.99
2017-03-09T07:10:32.804Z,972.94
2017-03-09T07:11:43.523Z,972.97
2017-03-09T07:12:54.237Z,972.98
2017-03-09T07:14:04.571Z,973.02
2017-03-09T07:15:15.267Z,973.01
2017-03-09T07:16:25.991Z,973.03
2017-03-09T07:17:36.292Z,973.03
2017-03-09T07:18:46.982Z,973.01
2017-03-09T07:19:57.693Z,973.02
2017-03-09T07:21:08.012Z,972.95
2017-03-09T07:22:18.731Z,973
2017-03-09T07:23:29.448Z,972.96
2017-03-09T07:24:40.154Z,972.97
2017-03-09T07:25:50.873Z,973
2017-03-09T07:27:01.587Z,972.99
2017-03-09T07:28:12.310Z,973
2017-03-09T07:29:22.610Z,972.96
2017-03-09T07:30:33.349Z,972.97
2017-03-09T07:31:44.073Z,972.98
2017-03-09T07:32:54.771Z,972.99
2017-03-09T07:34:05.477Z,972.95
2017-03-09T07:35:15.801Z,972.99
2017-03-09T07:36:26.536Z,972.99
2017-03-09T07:37:37.271Z,973.01
2017-03-09T07:38:47.975Z,973.01
2017-03-09T07:39:58.674Z,973
2017-03-09T07:41:08.980Z,973.02
2017-03-09T07:42:19.690Z,973.06
2017-03-09T07:43:29.202Z,973.03
2017-03-09T07:44:39.911Z,973.06
2017-03-09T07:45:50.602Z,973.05
2017-03-09T07:47:00.526Z,973.1
2017-03-09T07:48:11.241Z,973.05
2017-03-09T07:49:21.935Z,973.08
2017-03-09T07:50:32.255Z,973.07
2017-03-09T07:51:42.552Z,973.06
2017-03-09T07:52:53.258Z,973.07
2017-03-09T07:54:03.961Z,973.09
2017-03-09T07:55:14.269Z,973.16
2017-03-09T07:56:24.599Z,973.13
2017-03-09T07:57:35.302Z,973.12
2017-03-09T07:58:45.624Z,973.12
2017-03-09T07:59:56.343Z,973.14
2017-03-09T08:01:07.068Z,973.15
2017-03-09T08:02:17.775Z,973.15
2017-03-09T08:03:28.484Z,973.14
2017-03-09T08:04:39.211Z,973.06
2017-03-09T08:05:49.531Z,973.08
2017-03-09T08:07:00.245Z,973.02
2017-03-09T08:08:10.962Z,972.99
2017-03-09T08:09:21.691Z,973.01
2017-03-09T08:10:31.996Z,972.97
2017-03-09T08:11:42.292Z,972.96
2017-03-09T08:12:53.009Z,972.95
2017-03-09T08:14:03.718Z,972.94
2017-03-09T08:15:14.420Z,972.91
2017-03-09T08:16:25.138Z,972.89
2017-03-09T08:17:35.846Z,972.91
2017-03-09T08:18:46.151Z,972.89
2017-03-09T08:19:56.463Z,972.84
2017-03-09T08:21:06.789Z,972.88
2017-03-09T08:22:17.087Z,972.94
2017-03-09T08:23:27.805Z,972.96
2017-03-09T08:24:38.529Z,972.94
2017-03-09T08:25:49.248Z,972.94
2017-03-09T08:26:59.945Z,972.94
2017-03-09T08:28:10.665Z,972.95
2017-03-09T08:29:20.987Z,972.95
2017-03-09T08:30:31.685Z,972.94
2017-03-09T08:31:42.388Z,972.94
2017-03-09T08:32:53.086Z,972.92
2017-03-09T08:34:03.403Z,972.9
2017-03-09T08:35:13.709Z,972.93
2017-03-09T08:36:24.422Z,972.97
2017-03-09T08:39:52.127Z,973.03
2017-03-09T08:41:02.863Z,973.06
2017-03-09T08:42:13.560Z,973.07
2017-03-09T08:43:24.279Z,973.09
2017-03-09T08:44:35.003Z,973.06
2017-03-09T08:45:45.736Z,973.01
2017-03-09T08:46:56.057Z,972.98
2017-03-09T08:48:06.775Z,972.96
2017-03-09T08:49:17.080Z,972.97
2017-03-09T08:50:27.010Z,972.97
2017-03-09T08:51:36.940Z,972.98
2017-03-09T08:52:47.654Z,973
2017-03-09T08:53:58.357Z,972.96
2017-03-09T08:55:09.056Z,972.97
2017-03-09T08:56:19.759Z,973
2017-03-09T08:57:30.470Z,972.94
2017-03-09T08:58:41.182Z,972.9
2017-03-09T08:59:51.890Z,972.87
2017-03-09T09:01:02.612Z,972.85
2017-03-09T09:02:13.307Z,972.93
2017-03-09T09:03:24.026Z,972.96
2017-03-09T09:04:34.741Z,972.97
2017-03-09T09:05:45.049Z,972.94
2017-03-09T09:06:55.761Z,972.91
2017-03-09T09:08:06.454Z,972.94
2017-03-09T09:09:17.163Z,972.85
2017-03-09T09:10:27.868Z,972.87
2017-03-09T09:11:38.181Z,972.83
2017-03-09T09:12:48.901Z,972.83
2017-03-09T09:13:59.620Z,972.87
2017-03-09T09:15:10.333Z,972.86
2017-03-09T09:16:20.681Z,972.89
2017-03-09T09:17:31.378Z,972.87
2017-03-09T09:18:42.081Z,972.9
2017-03-09T09:19:52.786Z,972.85
2017-03-09T09:21:03.508Z,972.84
2017-03-09T09:22:14.213Z,972.92
2017-03-09T09:23:24.516Z,972.95
2017-03-09T09:24:34.427Z,972.93
2017-03-09T09:25:45.130Z,972.89
2017-03-09T09:26:55.848Z,972.88
2017-03-09T09:28:06.162Z,972.88
2017-03-09T09:29:16.852Z,972.95
2017-03-09T09:30:27.549Z,972.92
2017-03-09T09:31:38.259Z,972.93
2017-03-09T09:32:48.959Z,972.93
2017-03-09T09:33:59.667Z,972.91
2017-03-09T09:35:10.395Z,972.93
2017-03-09T09:36:20.711Z,972.9
2017-03-09T09:37:31.031Z,972.87
2017-03-09T09:38:41.749Z,972.9
2017-03-09T09:39:52.060Z,972.86
2017-03-09T09:41:02.398Z,972.91
2017-03-09T09:42:13.113Z,972.91
2017-03-09T09:43:23.809Z,972.91
2017-03-09T09:44:34.503Z,972.93
2017-03-09T09:45:45.244Z,972.95
2017-03-09T09:46:55.563Z,972.9
2017-03-09T09:48:06.273Z,972.86
2017-03-09T09:49:16.988Z,972.88
2017-03-09T09:50:27.692Z,972.9
2017-03-09T09:51:38.434Z,972.9
2017-03-09T09:52:49.178Z,972.93
2017-03-09T09:53:59.897Z,972.92
2017-03-09T09:55:09.972Z,972.97
2017-03-09T09:56:20.694Z,972.94
2017-03-09T09:57:31.414Z,972.92
2017-03-09T09:58:42.105Z,972.88
2017-03-09T09:59:52.812Z,972.92
2017-03-09T10:01:03.386Z,972.92
2017-03-09T10:02:14.115Z,972.9
2017-03-09T10:03:24.822Z,972.92
2017-03-09T10:04:35.156Z,972.95
2017-03-09T10:05:45.852Z,972.96
2017-03-09T10:06:56.597Z,972.98
2017-03-09T10:08:07.299Z,972.97
2017-03-09T10:09:18.021Z,972.97
2017-03-09T10:10:28.726Z,972.97
2017-03-09T10:11:39.438Z,972.99
2017-03-09T10:12:50.162Z,972.99
2017-03-09T10:14:00.471Z,973.06
2017-03-09T10:15:11.381Z,973.02
2017-03-09T10:16:22.099Z,973.07
2017-03-09T10:17:32.824Z,973.05
2017-03-09T10:18:43.542Z,973.05
2017-03-09T10:19:54.264Z,973.06
2017-03-09T10:21:04.982Z,973.04
2017-03-09T10:22:15.688Z,973.08
2017-03-09T10:23:26.402Z,973.09
2017-03-09T10:24:37.106Z,973.1
2017-03-09T10:25:47.807Z,973.06
2017-03-09T10:26:58.508Z,973.09
2017-03-09T10:28:09.220Z,973.04
2017-03-09T10:29:19.946Z,973.05
2017-03-09T10:30:30.268Z,973.08
2017-03-09T10:31:40.976Z,973.14
2017-03-09T10:32:51.697Z,973.18
2017-03-09T10:34:02.398Z,973.18
2017-03-09T10:35:13.126Z,973.19
2017-03-09T10:36:23.841Z,973.17
2017-03-09T10:37:34.550Z,973.17
2017-03-09T10:38:45.268Z,973.17
2017-03-09T10:39:55.969Z,973.24
2017-03-09T10:41:06.686Z,973.29
2017-03-09T10:42:17.403Z,973.25
2017-03-09T10:43:27.334Z,973.3
2017-03-09T10:44:37.661Z,973.25
2017-03-09T10:45:47.964Z,973.3
2017-03-09T10:46:58.674Z,973.31
2017-03-09T10:48:09.375Z,973.28
2017-03-09T10:49:20.093Z,973.32
2017-03-09T10:50:30.388Z,973.38
2017-03-09T10:51:40.728Z,973.41
2017-03-09T10:52:51.437Z,973.4
2017-03-09T10:54:01.737Z,973.4
2017-03-09T10:55:12.455Z,973.35
2017-03-09T10:56:22.759Z,973.37
2017-03-09T10:57:33.453Z,973.37
2017-03-09T10:58:43.756Z,973.35
2017-03-09T10:59:54.466Z,973.32
2017-03-09T11:01:05.190Z,973.37
2017-03-09T11:02:15.917Z,973.32
2017-03-09T11:03:26.627Z,973.32
2017-03-09T11:04:37.333Z,973.33
2017-03-09T11:05:48.040Z,973.37
2017-03-09T11:06:58.753Z,973.31
2017-03-09T11:08:09.485Z,973.36
2017-03-09T11:09:20.203Z,973.33
2017-03-09T11:10:30.932Z,973.41
2017-03-09T11:11:41.633Z,973.46
2017-03-09T11:12:52.346Z,973.49
2017-03-09T11:14:02.659Z,973.5
2017-03-09T11:15:13.353Z,973.49
2017-03-09T11:16:23.650Z,973.52
2017-03-09T11:17:33.974Z,973.56
2017-03-09T11:18:44.694Z,973.53
2017-03-09T11:19:55.415Z,973.42
2017-03-09T11:21:06.165Z,973.41
2017-03-09T11:22:16.871Z,973.37
2017-03-09T11:23:27.571Z,973.4
2017-03-09T11:24:38.282Z,973.42
2017-03-09T11:25:48.985Z,973.47
2017-03-09T11:26:59.683Z,973.39
2017-03-09T11:28:10.388Z,973.36
2017-03-09T11:29:20.699Z,973.32
2017-03-09T11:30:31.416Z,973.38
2017-03-09T11:31:42.144Z,973.47
2017-03-09T11:32:52.452Z,973.44
2017-03-09T11:34:02.758Z,973.42
2017-03-09T11:35:13.493Z,973.43
2017-03-09T11:36:23.801Z,973.36
2017-03-09T11:37:34.511Z,973.37
2017-03-09T11:38:44.865Z,973.29
2017-03-09T11:39:55.579Z,973.31
2017-03-09T11:41:06.305Z,973.3
2017-03-09T11:42:17.021Z,973.33
2017-03-09T11:43:27.732Z,973.28
2017-03-09T11:44:38.460Z,973.31
2017-03-09T11:45:49.188Z,973.3
2017-03-09T11:46:59.913Z,973.28
2017-03-09T11:48:10.230Z,973.31
2017-03-09T11:49:20.938Z,973.25
2017-03-09T11:50:31.271Z,973.31
2017-03-09T11:51:41.591Z,973.27
2017-03-09T11:52:52.295Z,973.28
2017-03-09T11:54:03.004Z,973.27
2017-03-09T11:55:13.730Z,973.3
2017-03-09T11:56:24.440Z,973.28
2017-03-09T11:57:35.171Z,973.3
2017-03-09T11:58:45.888Z,973.25
2017-03-09T11:59:56.225Z,973.29
2017-03-09T12:01:06.935Z,973.32
2017-03-09T12:02:17.632Z,973.3
2017-03-09T12:03:27.991Z,973.36
2017-03-09T12:04:38.307Z,973.4
2017-03-09T12:05:49.033Z,973.41
2017-03-09T12:06:59.745Z,973.4
2017-03-09T12:08:10.454Z,973.34
2017-03-09T12:09:20.774Z,973.37
2017-03-09T12:10:31.482Z,973.41
2017-03-09T12:11:41.800Z,973.39
2017-03-09T12:12:52.119Z,973.37
2017-03-09T12:14:02.436Z,973.34
2017-03-09T12:15:13.168Z,973.34
2017-03-09T12:16:23.868Z,973.39
2017-03-09T12:17:34.581Z,973.42
2017-03-09T12:18:45.315Z,973.38
2017-03-09T12:19:56.032Z,973.4
2017-03-09T12:21:06.731Z,973.35
2017-03-09T12:22:17.472Z,973.37
2017-03-09T12:23:28.204Z,973.44
2017-03-09T12:24:38.928Z,973.33
2017-03-09T12:25:49.646Z,973.35
2017-03-09T12:26:59.957Z,973.35
2017-03-09T12:28:10.305Z,973.33
2017-03-09T12:29:20.215Z,973.29
2017-03-09T12:30:30.551Z,973.29
2017-03-09T12:31:41.259Z,973.25
2017-03-09T12:32:51.189Z,973.31
2017-03-09T12:34:01.897Z,973.32
2017-03-09T12:35:12.610Z,973.37
2017-03-09T12:36:23.329Z,973.42
2017-03-09T12:37:34.051Z,973.39
2017-03-09T12:38:44.768Z,973.39
2017-03-09T12:39:55.082Z,973.39
2017-03-09T12:41:05.799Z,973.39
2017-03-09T12:42:16.527Z,973.41
2017-03-09T12:43:26.842Z,973.42
2017-03-09T12:44:37.557Z,973.47
2017-03-09T12:45:48.286Z,973.41
2017-03-09T12:46:58.594Z,973.42
2017-03-09T12:48:09.329Z,973.41
2017-03-09T12:49:19.621Z,973.42
2017-03-09T12:50:29.972Z,973.33
2017-03-09T12:51:40.671Z,973.35
2017-03-09T12:52:51.384Z,973.36
2017-03-09T12:54:02.099Z,973.36
2017-03-09T12:55:12.439Z,973.29
2017-03-09T12:56:23.150Z,973.29
2017-03-09T12:57:33.851Z,973.3
2017-03-09T12:58:44.554Z,973.34
2017-03-09T12:59:54.894Z,973.37
2017-03-09T13:01:05.223Z,973.35
2017-03-09T13:02:15.535Z,973.35
2017-03-09T13:03:26.253Z,973.36
2017-03-09T13:04:36.965Z,973.39
2017-03-09T13:05:47.686Z,973.32
2017-03-09T13:06:58.391Z,973.33
2017-03-09T13:08:08.739Z,973.35
2017-03-09T13:09:19.457Z,973.32
2017-03-09T13:10:30.160Z,973.34
2017-03-09T13:11:40.511Z,973.27
2017-03-09T13:12:51.218Z,973.26
2017-03-09T13:14:01.987Z,973.23
2017-03-09T13:15:12.702Z,973.3
2017-03-09T13:16:23.003Z,973.28
2017-03-09T13:17:33.322Z,973.26
2017-03-09T13:18:43.649Z,973.25
2017-03-09T13:19:54.365Z,973.25
2017-03-09T13:21:05.129Z,973.27
2017-03-09T13:22:15.445Z,973.29
2017-03-09T13:23:25.747Z,973.27
2017-03-09T13:24:36.472Z,973.27
2017-03-09T13:25:47.168Z,973.23
2017-03-09T13:26:57.509Z,973.24
2017-03-09T13:28:08.234Z,973.26
2017-03-09T13:29:18.966Z,973.3
2017-03-09T13:30:29.672Z,973.29
2017-03-09T13:31:40.372Z,973.29
2017-03-09T13:32:50.686Z,973.25
2017-03-09T13:34:01.398Z,973.24
2017-03-09T13:35:12.121Z,973.17
2017-03-09T13:36:22.433Z,973.17
2017-03-09T13:37:32.763Z,973.21
2017-03-09T13:38:43.478Z,973.19
2017-03-09T13:39:54.197Z,973.21
2017-03-09T13:41:04.925Z,973.23
2017-03-09T13:42:15.636Z,973.25
2017-03-09T13:43:26.347Z,973.15
2017-03-09T13:44:36.665Z,973.13
2017-03-09T13:45:47.376Z,973.13
2017-03-09T13:46:58.077Z,973.14
2017-03-09T13:48:08.392Z,973.06
2017-03-09T13:49:19.088Z,973.15
2017-03-09T13:50:29.433Z,973.15
2017-03-09T13:51:40.153Z,973.16
2017-03-09T13:52:50.870Z,973.2
2017-03-09T13:54:01.592Z,973.21
2017-03-09T13:55:11.954Z,973.2
2017-03-09T13:56:22.685Z,973.24
2017-03-09T13:57:32.994Z,973.19
2017-03-09T13:58:43.697Z,973.18
2017-03-09T13:59:54.412Z,973.2
2017-03-09T14:01:04.723Z,973.19
2017-03-09T14:02:15.038Z,973.24
2017-03-09T14:03:25.767Z,973.26
2017-03-09T14:04:36.117Z,973.26
2017-03-09T14:05:46.825Z,973.24
2017-03-09T14:06:57.546Z,973.21
2017-03-09T14:08:08.255Z,973.21
2017-03-09T14:09:18.970Z,973.17
2017-03-09T14:10:28.878Z,973.15
2017-03-09T14:11:39.603Z,973.15
2017-03-09T14:12:49.918Z,973.17
2017-03-09T14:13:59.852Z,973.2
2017-03-09T14:15:10.588Z,973.16
2017-03-09T14:16:21.316Z,973.13
2017-03-09T14:17:32.044Z,973.16
2017-03-09T14:18:42.749Z,973.18
2017-03-09T14:19:52.664Z,973.16
2017-03-09T14:21:02.988Z,973.19
2017-03-09T14:22:13.710Z,973.22
2017-03-09T14:23:24.027Z,973.22
2017-03-09T14:24:34.744Z,973.16
2017-03-09T14:25:45.468Z,973.12
2017-03-09T14:26:55.790Z,973.12
2017-03-09T14:28:06.502Z,973.16
2017-03-09T14:29:17.223Z,973.22
2017-03-09T14:30:27.952Z,973.19
2017-03-09T14:31:38.652Z,973.17
2017-03-09T14:32:49.371Z,973.2
2017-03-09T14:34:00.066Z,973.2
2017-03-09T14:35:10.784Z,973.16
2017-03-09T14:36:21.490Z,973.2
2017-03-09T14:37:32.226Z,973.2
2017-03-09T14:38:42.539Z,973.2
2017-03-09T14:39:53.247Z,973.22
2017-03-09T14:41:03.958Z,973.18
2017-03-09T14:42:14.677Z,973.17
2017-03-09T14:43:25.009Z,973.14
2017-03-09T14:44:35.712Z,973.14
2017-03-09T14:45:46.025Z,973.15
2017-03-09T14:46:56.742Z,973.09